createdAt,value
2018-04-15T00:00:21.583Z,11.60
2018-04-15T00:02:49.143Z,11.60
2018-04-15T00:05:16.662Z,11.60
2018-04-15T00:07:44.182Z,11.60
2018-04-15T00:10:11.722Z,11.60
2018-04-15T00:12:39.258Z,11.60
2018-04-15T00:15:07.555Z,11.60
2018-04-15T00:17:35.099Z,11.50
2018-04-15T00:20:03.410Z,11.30
2018-04-15T00:22:30.927Z,11.30
2018-04-15T00:24:59.219Z,11.20
2018-04-15T00:27:26.778Z,11.20
2018-04-15T00:29:54.314Z,11.20
2018-04-15T00:32:21.830Z,11.20
2018-04-15T00:34:49.367Z,11.20
2018-04-15T00:37:16.882Z,11.30
2018-04-15T00:39:44.413Z,11.20
2018-04-15T00:42:12.014Z,11.20
2018-04-15T00:44:40.309Z,11.00
2018-04-15T00:47:07.855Z,11.00
2018-04-15T00:49:35.370Z,11.00
2018-04-15T00:52:02.893Z,11.00
2018-04-15T00:54:30.402Z,11.00
2018-04-15T00:56:57.914Z,11.00
2018-04-15T00:59:25.491Z,11.00
2018-04-15T01:01:53.020Z,10.90
2018-04-15T01:04:20.559Z,10.80
2018-04-15T01:06:48.095Z,10.70
2018-04-15T01:09:15.634Z,10.70
2018-04-15T01:11:43.173Z,10.60
2018-04-15T01:14:10.703Z,10.60
2018-04-15T01:16:38.242Z,10.60
2018-04-15T01:19:05.790Z,10.70
2018-04-15T01:21:33.343Z,10.70
2018-04-15T01:24:00.918Z,10.70
2018-04-15T01:26:28.470Z,10.70
2018-04-15T01:28:55.991Z,10.70
2018-04-15T01:31:23.511Z,10.60
2018-04-15T01:33:56.011Z,10.60
2018-04-15T01:36:23.526Z,10.60
2018-04-15T01:38:51.823Z,10.50
2018-04-15T01:41:19.349Z,10.50
2018-04-15T01:43:46.877Z,10.60
2018-04-15T01:46:14.386Z,10.60
2018-04-15T01:48:42.687Z,10.60
2018-04-15T01:51:10.229Z,10.60
2018-04-15T01:53:37.738Z,10.60
2018-04-15T01:56:05.255Z,10.50
2018-04-15T01:58:32.838Z,10.50
2018-04-15T02:01:00.366Z,10.40
2018-04-15T02:03:38.363Z,10.40
2018-04-15T02:06:06.665Z,10.40
2018-04-15T02:08:34.186Z,10.40
2018-04-15T02:11:02.492Z,10.30
2018-04-15T02:13:30.001Z,10.30
2018-04-15T02:15:57.522Z,10.20
2018-04-15T02:18:25.083Z,10.10
2018-04-15T02:20:52.593Z,10.10
2018-04-15T02:23:20.118Z,10.00
2018-04-15T02:25:47.657Z,10.00
2018-04-15T02:28:15.262Z,10.10
2018-04-15T02:30:42.778Z,10.00
2018-04-15T02:33:10.315Z,9.80
2018-04-15T02:35:37.827Z,9.70
2018-04-15T02:38:05.343Z,9.70
2018-04-15T02:40:32.907Z,9.70
2018-04-15T02:43:00.427Z,9.70
2018-04-15T02:45:27.960Z,9.80
2018-04-15T02:47:55.499Z,9.80
2018-04-15T02:50:23.013Z,9.70
2018-04-15T02:52:51.318Z,9.50
2018-04-15T02:55:18.890Z,9.50
2018-04-15T02:57:46.423Z,9.40
2018-04-15T03:00:13.938Z,9.30
2018-04-15T03:02:41.500Z,9.20
2018-04-15T03:05:09.073Z,9.20
2018-04-15T03:07:36.590Z,9.20
2018-04-15T03:10:04.112Z,9.30
2018-04-15T03:12:31.649Z,9.20
2018-04-15T03:15:05.031Z,9.20
2018-04-15T03:17:32.603Z,9.20
2018-04-15T03:20:00.891Z,9.30
2018-04-15T03:22:28.454Z,9.30
2018-04-15T03:24:56.074Z,9.30
2018-04-15T03:27:23.593Z,9.30
2018-04-15T03:29:51.149Z,9.30
2018-04-15T03:32:19.422Z,9.20
2018-04-15T03:35:01.229Z,9.20
2018-04-15T03:37:28.749Z,9.20
2018-04-15T03:39:56.315Z,9.20
2018-04-15T03:42:23.858Z,9.30
2018-04-15T03:44:51.791Z,9.30
2018-04-15T03:47:19.313Z,9.20
2018-04-15T03:49:46.867Z,9.30
2018-04-15T03:52:14.397Z,9.30
2018-04-15T03:54:41.951Z,9.40
2018-04-15T03:57:10.250Z,9.40
2018-04-15T03:59:37.778Z,9.40
2018-04-15T04:02:05.290Z,9.40
2018-04-15T04:04:33.213Z,9.40
2018-04-15T04:07:01.542Z,9.30
2018-04-15T04:09:29.054Z,9.30
2018-04-15T04:11:56.593Z,9.20
2018-04-15T04:14:24.312Z,9.20
2018-04-15T04:16:51.816Z,9.20
2018-04-15T04:19:31.075Z,9.30
2018-04-15T04:22:10.314Z,9.40
2018-04-15T04:24:49.912Z,9.40
2018-04-15T04:27:17.423Z,9.40
2018-04-15T04:29:44.922Z,9.40
2018-04-15T04:32:12.482Z,9.40
2018-04-15T04:34:40.175Z,9.40
2018-04-15T04:37:08.502Z,9.50
2018-04-15T04:39:36.037Z,9.50
2018-04-15T04:42:03.549Z,9.40
2018-04-15T04:44:50.056Z,9.30
2018-04-15T04:47:17.575Z,9.30
2018-04-15T04:49:45.089Z,9.30
2018-04-15T04:52:12.643Z,9.20
2018-04-15T04:54:40.158Z,9.20
2018-04-15T04:57:07.679Z,9.20
2018-04-15T04:59:35.198Z,9.10
2018-04-15T05:02:02.726Z,9.10
2018-04-15T05:04:30.234Z,9.20
2018-04-15T05:06:57.803Z,9.30
2018-04-15T05:09:25.354Z,9.30
2018-04-15T05:11:53.652Z,9.40
2018-04-15T05:14:21.406Z,9.30
2018-04-15T05:16:49.691Z,9.30
2018-04-15T05:19:17.187Z,9.30
2018-04-15T05:21:44.734Z,9.20
2018-04-15T05:24:12.343Z,9.20
2018-04-15T05:26:40.617Z,9.20
2018-04-15T05:29:08.127Z,9.10
2018-04-15T05:31:35.650Z,9.10
2018-04-15T05:34:03.398Z,9.10
2018-04-15T05:36:31.698Z,9.00
2018-04-15T05:38:59.276Z,9.00
2018-04-15T05:41:26.798Z,9.00
2018-04-15T05:43:55.084Z,9.10
2018-04-15T05:46:22.625Z,9.10
2018-04-15T05:48:50.146Z,9.00
2018-04-15T05:51:17.699Z,9.00
2018-04-15T05:53:45.208Z,9.10
2018-04-15T05:56:12.714Z,9.30
2018-04-15T05:58:40.238Z,9.40
2018-04-15T06:01:07.762Z,9.60
2018-04-15T06:03:35.269Z,9.60
2018-04-15T06:06:02.845Z,9.70
2018-04-15T06:08:30.391Z,9.80
2018-04-15T06:10:57.894Z,9.90
2018-04-15T06:13:25.467Z,10.00
2018-04-15T06:15:53.068Z,10.00
2018-04-15T06:18:20.594Z,10.10
2018-04-15T06:20:48.127Z,10.20
2018-04-15T06:23:15.707Z,10.30
2018-04-15T06:25:43.994Z,10.40
2018-04-15T06:28:12.271Z,10.30
2018-04-15T06:30:39.819Z,10.30
2018-04-15T06:33:08.108Z,10.20
2018-04-15T06:35:35.630Z,10.20
2018-04-15T06:38:03.166Z,10.20
2018-04-15T06:40:30.699Z,10.20
2018-04-15T06:42:58.227Z,10.20
2018-04-15T06:45:26.552Z,10.40
2018-04-15T06:47:54.099Z,10.40
2018-04-15T06:50:21.659Z,10.40
2018-04-15T06:52:49.179Z,10.50
2018-04-15T06:55:16.709Z,10.60
2018-04-15T06:57:44.251Z,10.70
2018-04-15T07:00:11.800Z,10.80
2018-04-15T07:02:39.315Z,10.90
2018-04-15T07:05:07.599Z,10.90
2018-04-15T07:07:35.186Z,10.90
2018-04-15T07:10:02.703Z,10.80
2018-04-15T07:12:30.238Z,10.80
2018-04-15T07:14:57.823Z,10.90
2018-04-15T07:17:26.118Z,10.90
2018-04-15T07:19:53.667Z,10.90
2018-04-15T07:22:21.223Z,11.00
2018-04-15T07:24:48.741Z,11.00
2018-04-15T07:27:16.323Z,11.00
2018-04-15T07:29:43.851Z,11.00
2018-04-15T07:32:11.386Z,11.00
2018-04-15T07:34:38.919Z,11.00
2018-04-15T07:37:06.435Z,11.10
2018-04-15T07:39:33.970Z,11.10
2018-04-15T07:42:01.509Z,11.10
2018-04-15T07:44:29.031Z,11.20
2018-04-15T07:46:56.592Z,11.20
2018-04-15T07:49:24.931Z,11.30
2018-04-15T07:51:52.450Z,11.30
2018-04-15T07:54:19.990Z,11.40
2018-04-15T07:56:48.277Z,11.40
2018-04-15T07:59:16.567Z,11.50
2018-04-15T08:01:44.098Z,11.50
2018-04-15T08:04:26.821Z,11.60
2018-04-15T08:06:54.346Z,11.60
2018-04-15T08:09:21.878Z,11.60
2018-04-15T08:11:49.392Z,11.80
2018-04-15T08:14:16.931Z,11.90
2018-04-15T08:16:44.499Z,12.00
2018-04-15T08:19:12.015Z,12.10
2018-04-15T08:21:39.595Z,12.10
2018-04-15T08:24:07.184Z,12.10
2018-04-15T08:26:34.749Z,12.20
2018-04-15T08:29:02.439Z,12.40
2018-04-15T08:31:34.128Z,12.50
2018-04-15T08:34:03.910Z,12.60
2018-04-15T08:36:36.033Z,12.70
2018-04-15T08:39:03.766Z,12.70
2018-04-15T08:41:31.283Z,12.80
2018-04-15T08:43:58.818Z,12.90
2018-04-15T08:46:26.455Z,12.90
2018-04-15T08:48:53.995Z,13.00
2018-04-15T08:51:21.508Z,13.00
2018-04-15T08:53:49.166Z,13.00
2018-04-15T08:56:16.718Z,13.00
2018-04-15T08:58:44.267Z,13.00
2018-04-15T09:01:12.599Z,13.20
2018-04-15T09:03:40.202Z,13.10
2018-04-15T09:06:07.722Z,13.20
2018-04-15T09:08:35.285Z,13.20
2018-04-15T09:11:02.820Z,13.20
2018-04-15T09:13:30.346Z,13.30
2018-04-15T09:15:57.910Z,13.30
2018-04-15T09:18:25.459Z,13.40
2018-04-15T09:20:52.990Z,13.40
2018-04-15T09:23:20.538Z,13.50
2018-04-15T09:25:48.090Z,13.50
2018-04-15T09:28:15.606Z,13.50
2018-04-15T09:30:48.822Z,13.60
2018-04-15T09:33:16.337Z,13.60
2018-04-15T09:35:43.892Z,13.60
2018-04-15T09:38:12.222Z,13.40
2018-04-15T09:40:39.739Z,13.40
2018-04-15T09:43:08.034Z,13.30
2018-04-15T09:45:36.440Z,13.30
2018-04-15T09:48:03.959Z,13.10
2018-04-15T09:50:31.499Z,13.10
2018-04-15T09:52:59.018Z,13.10
2018-04-15T09:55:26.555Z,13.20
2018-04-15T09:57:54.107Z,13.30
2018-04-15T10:00:21.632Z,13.30
2018-04-15T10:02:49.975Z,13.40
2018-04-15T10:05:17.514Z,13.40
2018-04-15T10:07:45.031Z,13.50
2018-04-15T10:10:12.586Z,13.70
2018-04-15T10:12:40.871Z,13.90
2018-04-15T10:15:08.386Z,13.90
2018-04-15T10:17:35.918Z,14.10
2018-04-15T10:20:03.471Z,14.20
2018-04-15T10:22:31.028Z,14.40
2018-04-15T10:24:58.567Z,14.50
2018-04-15T10:27:26.086Z,14.70
2018-04-15T10:29:53.624Z,14.60
2018-04-15T10:32:21.223Z,14.60
2018-04-15T10:34:48.733Z,14.70
2018-04-15T10:37:16.255Z,14.90
2018-04-15T10:39:44.578Z,15.00
2018-04-15T10:42:12.098Z,15.00
2018-04-15T10:44:40.390Z,15.30
2018-04-15T10:47:07.934Z,15.30
2018-04-15T10:49:35.486Z,15.30
2018-04-15T10:52:03.050Z,15.30
2018-04-15T10:54:40.614Z,15.30
2018-04-15T10:57:08.183Z,15.30
2018-04-15T10:59:35.707Z,15.40
2018-04-15T11:02:03.226Z,15.40
2018-04-15T11:04:30.778Z,15.50
2018-04-15T11:06:58.306Z,15.50
2018-04-15T11:09:25.833Z,15.40
2018-04-15T11:11:53.415Z,15.40
2018-04-15T11:14:35.259Z,15.40
2018-04-15T11:17:02.802Z,15.40
2018-04-15T11:19:31.098Z,15.60
2018-04-15T11:21:58.627Z,15.60
2018-04-15T11:24:26.185Z,15.80
2018-04-15T11:26:54.482Z,16.10
2018-04-15T11:29:22.026Z,16.10
2018-04-15T11:31:49.537Z,16.20
2018-04-15T11:34:17.056Z,16.60
2018-04-15T11:36:44.629Z,16.90
2018-04-15T11:39:12.169Z,17.20
2018-04-15T11:41:39.727Z,17.40
2018-04-15T11:44:07.251Z,17.50
2018-04-15T11:46:34.790Z,17.60
2018-04-15T11:49:02.303Z,17.80
2018-04-15T11:51:29.891Z,17.90
2018-04-15T11:53:57.577Z,18.00
2018-04-15T11:56:25.108Z,18.10
2018-04-15T11:58:52.642Z,18.20
2018-04-15T12:01:20.170Z,18.30
2018-04-15T12:03:47.844Z,18.40
2018-04-15T12:06:15.394Z,18.30
2018-04-15T12:08:42.922Z,18.30
2018-04-15T12:11:10.463Z,18.30
2018-04-15T12:13:38.015Z,18.20
2018-04-15T12:16:05.534Z,18.20
2018-04-15T12:18:33.822Z,17.90
2018-04-15T12:21:02.143Z,18.10
2018-04-15T12:23:29.711Z,18.10
2018-04-15T12:25:57.304Z,18.30
2018-04-15T12:28:24.916Z,18.10
2018-04-15T12:30:52.506Z,18.10
2018-04-15T12:33:20.047Z,18.20
2018-04-15T12:39:01.003Z,18.30
2018-04-15T12:41:28.590Z,18.20
2018-04-15T12:43:56.149Z,18.40
2018-04-15T12:46:23.659Z,18.40
2018-04-15T12:48:52.000Z,18.30
2018-04-15T12:51:19.534Z,18.30
2018-04-15T12:53:52.315Z,18.30
2018-04-15T12:56:19.842Z,18.20
2018-04-15T12:58:48.252Z,18.20
2018-04-15T13:01:15.782Z,18.30
2018-04-15T13:03:43.318Z,18.40
2018-04-15T13:06:10.929Z,18.50
2018-04-15T13:08:38.510Z,18.50
2018-04-15T13:11:06.046Z,18.60
2018-04-15T13:13:33.600Z,18.60
2018-04-15T13:16:01.135Z,18.50
2018-04-15T13:18:28.662Z,18.40
2018-04-15T13:20:56.194Z,18.50
2018-04-15T13:23:23.718Z,18.50
2018-04-15T13:25:51.370Z,18.50
2018-04-15T13:28:18.886Z,18.60
2018-04-15T13:30:46.402Z,18.70
2018-04-15T13:33:13.968Z,18.90
2018-04-15T13:35:46.711Z,18.90
2018-04-15T13:38:14.269Z,19.10
2018-04-15T13:40:42.549Z,19.10
2018-04-15T13:43:10.073Z,19.10
2018-04-15T13:45:37.605Z,19.10
2018-04-15T13:48:05.133Z,19.10
2018-04-15T13:50:32.671Z,19.10
2018-04-15T13:53:00.218Z,19.20
2018-04-15T13:55:27.733Z,19.30
2018-04-15T13:57:55.270Z,19.50
2018-04-15T14:00:22.835Z,19.50
2018-04-15T14:02:50.434Z,19.40
2018-04-15T14:05:17.953Z,19.40
2018-04-15T14:07:45.519Z,19.40
2018-04-15T14:10:13.062Z,19.30
2018-04-15T14:12:40.599Z,19.30
2018-04-15T14:15:08.159Z,19.20
2018-04-15T14:17:35.737Z,18.90
2018-04-15T14:20:04.018Z,18.60
2018-04-15T14:22:31.570Z,18.60
2018-04-15T14:24:59.849Z,18.30
2018-04-15T14:27:27.390Z,18.30
2018-04-15T14:29:54.903Z,18.30
2018-04-15T14:32:22.426Z,18.30
2018-04-15T14:34:49.994Z,18.30
2018-04-15T14:37:17.521Z,18.30
2018-04-15T14:39:45.818Z,18.20
2018-04-15T14:42:13.387Z,18.20
2018-04-15T14:44:40.903Z,18.20
2018-04-15T14:47:08.438Z,18.20
2018-04-15T14:49:35.996Z,18.20
2018-04-15T14:52:03.628Z,18.10
2018-04-15T14:54:31.098Z,18.10
2018-04-15T14:56:58.638Z,18.00
2018-04-15T14:59:26.150Z,18.10
2018-04-15T15:01:53.684Z,18.10
2018-04-15T15:04:21.262Z,18.20
2018-04-15T15:06:48.862Z,18.10
2018-04-15T15:09:16.343Z,17.90
2018-04-15T15:11:43.906Z,17.90
2018-04-15T15:14:11.442Z,17.90
2018-04-15T15:16:39.007Z,17.90
2018-04-15T15:19:06.534Z,17.90
2018-04-15T15:21:34.057Z,17.90
2018-04-15T15:24:01.614Z,17.90
2018-04-15T15:26:29.130Z,17.80
2018-04-15T15:28:56.654Z,17.80
2018-04-15T15:31:24.220Z,17.70
2018-04-15T15:33:51.747Z,17.70
2018-04-15T15:36:19.278Z,17.70
2018-04-15T15:38:46.844Z,17.70
2018-04-15T15:41:14.366Z,17.70
2018-04-15T15:43:42.735Z,17.50
2018-04-15T15:46:10.282Z,17.50
2018-04-15T15:48:37.801Z,17.50
2018-04-15T15:51:05.365Z,17.50
2018-04-15T15:53:32.922Z,17.30
2018-04-15T15:56:00.451Z,17.30
2018-04-15T15:58:28.070Z,17.30
2018-04-15T16:00:55.629Z,17.30
2018-04-15T16:03:23.195Z,17.20
2018-04-15T16:05:50.767Z,17.20
2018-04-15T16:08:18.359Z,17.20
2018-04-15T16:10:45.882Z,17.10
2018-04-15T16:13:13.439Z,17.10
2018-04-15T16:15:40.962Z,17.10
2018-04-15T16:18:08.527Z,17.10
2018-04-15T16:20:36.085Z,17.10
2018-04-15T16:23:03.617Z,17.00
2018-04-15T16:25:36.295Z,17.00
2018-04-15T16:28:03.853Z,17.00
2018-04-15T16:30:31.350Z,16.90
2018-04-15T16:32:58.898Z,16.90
2018-04-15T16:35:26.435Z,16.90
2018-04-15T16:37:53.960Z,16.90
2018-04-15T16:40:22.318Z,16.90
2018-04-15T16:42:49.827Z,16.90
2018-04-15T16:45:17.350Z,16.90
2018-04-15T16:47:44.928Z,16.80
2018-04-15T16:50:13.023Z,16.80
2018-04-15T16:52:40.538Z,16.90
2018-04-15T16:55:08.831Z,16.80
2018-04-15T16:57:36.392Z,16.80
2018-04-15T17:00:03.995Z,16.70
2018-04-15T17:02:31.495Z,16.70
2018-04-15T17:04:59.823Z,16.60
2018-04-15T17:07:27.346Z,16.60
2018-04-15T17:09:54.868Z,16.60
2018-04-15T17:12:22.413Z,16.50
2018-04-15T17:14:49.954Z,16.60
2018-04-15T17:17:17.486Z,16.60
2018-04-15T17:19:45.024Z,16.60
2018-04-15T17:22:13.354Z,16.50
2018-04-15T17:24:40.941Z,16.50
2018-04-15T17:27:08.549Z,16.50
2018-04-15T17:29:36.858Z,16.40
2018-04-15T17:32:04.387Z,16.40
2018-04-15T17:34:31.931Z,16.30
2018-04-15T17:36:59.470Z,16.20
2018-04-15T17:39:26.999Z,16.10
2018-04-15T17:41:54.563Z,16.10
2018-04-15T17:44:22.102Z,16.00
2018-04-15T17:46:49.619Z,15.80
2018-04-15T17:49:17.151Z,15.70
2018-04-15T17:51:45.454Z,15.70
2018-04-15T17:54:13.010Z,15.60
2018-04-15T17:56:40.538Z,15.70
2018-04-15T17:59:08.922Z,15.70
2018-04-15T18:01:37.219Z,15.60
2018-04-15T18:04:19.375Z,15.60
2018-04-15T18:06:46.898Z,15.70
2018-04-15T18:09:14.483Z,15.60
2018-04-15T18:11:42.254Z,15.60
2018-04-15T18:14:09.771Z,15.60
2018-04-15T18:16:37.295Z,15.50
2018-04-15T18:19:04.849Z,15.50
2018-04-15T18:21:32.611Z,15.40
2018-04-15T18:24:00.096Z,15.40
2018-04-15T18:26:27.667Z,15.40
2018-04-15T18:28:55.195Z,15.40
2018-04-15T18:31:22.734Z,15.30
2018-04-15T18:33:50.306Z,15.20
2018-04-15T18:36:17.815Z,15.20
2018-04-15T18:38:45.337Z,15.20
2018-04-15T18:41:12.882Z,15.30
2018-04-15T18:43:40.391Z,15.30
2018-04-15T18:46:07.937Z,15.30
2018-04-15T18:48:35.465Z,15.30
2018-04-15T18:51:03.033Z,15.20
2018-04-15T18:53:31.332Z,15.20
2018-04-15T18:55:58.873Z,15.20
2018-04-15T18:58:27.155Z,15.10
2018-04-15T19:00:54.676Z,15.10
2018-04-15T19:03:22.223Z,15.20
2018-04-15T19:05:49.751Z,15.20
2018-04-15T19:08:17.272Z,15.20
2018-04-15T19:10:45.610Z,15.20
2018-04-15T19:13:13.166Z,15.20
2018-04-15T19:15:40.684Z,15.10
2018-04-15T19:18:08.219Z,15.00
2018-04-15T19:20:35.790Z,14.90
2018-04-15T19:23:03.308Z,14.80
2018-04-15T19:25:31.071Z,14.70
2018-04-15T19:27:58.601Z,14.70
2018-04-15T19:30:26.114Z,14.70
2018-04-15T19:32:54.419Z,14.90
2018-04-15T19:35:22.055Z,14.80
2018-04-15T19:37:49.602Z,14.80
2018-04-15T19:40:17.090Z,14.50
2018-04-15T19:42:44.680Z,14.50
2018-04-15T19:45:12.241Z,14.50
2018-04-15T19:47:39.758Z,14.70
2018-04-15T19:50:08.043Z,15.00
2018-04-15T19:52:35.582Z,14.90
2018-04-15T19:55:03.243Z,15.10
2018-04-15T19:57:31.571Z,15.10
2018-04-15T19:59:59.107Z,15.10
2018-04-15T20:02:27.443Z,15.10
2018-04-15T20:05:18.996Z,15.10
2018-04-15T20:07:47.306Z,15.20
2018-04-15T20:10:14.827Z,15.20
2018-04-15T20:12:42.357Z,15.20
2018-04-15T20:15:09.970Z,15.10
2018-04-15T20:17:37.499Z,15.10
2018-04-15T20:20:05.766Z,15.00
2018-04-15T20:22:34.114Z,14.90
2018-04-15T20:25:01.648Z,14.90
2018-04-15T20:27:29.174Z,14.80
2018-04-15T20:29:56.731Z,14.70
2018-04-15T20:32:24.291Z,14.70
2018-04-15T20:35:11.343Z,14.70
2018-04-15T20:37:38.898Z,14.70
2018-04-15T20:40:06.431Z,14.70
2018-04-15T20:42:33.995Z,14.70
2018-04-15T20:45:01.603Z,14.60
2018-04-15T20:47:29.160Z,14.60
2018-04-15T20:49:56.654Z,14.60
2018-04-15T20:52:24.237Z,14.60
2018-04-15T20:54:51.966Z,14.50
2018-04-15T20:57:19.495Z,14.50
2018-04-15T20:59:47.075Z,14.50
2018-04-15T21:02:14.592Z,14.50
2018-04-15T21:04:47.407Z,14.50
2018-04-15T21:07:14.922Z,14.40
2018-04-15T21:09:42.450Z,14.40
2018-04-15T21:12:10.003Z,14.40
2018-04-15T21:14:37.763Z,14.30
2018-04-15T21:17:05.282Z,14.30
2018-04-15T21:19:32.847Z,14.30
2018-04-15T21:22:00.381Z,14.30
2018-04-15T21:24:27.910Z,14.30
2018-04-15T21:26:55.507Z,14.40
2018-04-15T21:29:22.999Z,14.30
2018-04-15T21:31:50.551Z,14.30
2018-04-15T21:34:27.874Z,14.30
2018-04-15T21:36:55.418Z,14.30
2018-04-15T21:39:23.693Z,14.20
2018-04-15T21:41:51.990Z,14.30
2018-04-15T21:44:19.535Z,14.20
2018-04-15T21:46:47.111Z,14.20
2018-04-15T21:49:14.654Z,14.20
2018-04-15T21:51:42.212Z,14.20
2018-04-15T21:54:09.764Z,14.10
2018-04-15T21:56:38.046Z,14.10
2018-04-15T21:59:05.617Z,14.10
2018-04-15T22:01:33.138Z,14.20
2018-04-15T22:04:00.674Z,14.20
2018-04-15T22:06:28.226Z,14.20
2018-04-15T22:08:55.791Z,14.20
2018-04-15T22:11:35.071Z,14.10
2018-04-15T22:14:02.602Z,14.10
2018-04-15T22:16:30.123Z,14.20
2018-04-15T22:18:57.661Z,14.20
2018-04-15T22:21:25.180Z,14.10
2018-04-15T22:23:52.707Z,14.10
2018-04-15T22:26:20.262Z,14.10
2018-04-15T22:28:47.805Z,14.10
2018-04-15T22:31:15.335Z,14.00
2018-04-15T22:33:42.907Z,13.90
2018-04-15T22:36:10.432Z,13.80
2018-04-15T22:38:37.947Z,13.80
2018-04-15T22:41:05.507Z,13.80
2018-04-15T22:43:33.035Z,13.80
2018-04-15T22:46:00.681Z,13.80
2018-04-15T22:48:33.804Z,13.90
2018-04-15T22:51:01.339Z,13.80
2018-04-15T22:53:28.903Z,13.80
2018-04-15T22:55:56.462Z,13.80
2018-04-15T22:58:24.815Z,13.70
2018-04-15T23:00:52.392Z,13.60
2018-04-15T23:03:20.699Z,13.60
2018-04-15T23:05:48.243Z,13.60
2018-04-15T23:08:15.758Z,13.50
2018-04-15T23:10:43.279Z,13.50
2018-04-15T23:13:11.578Z,13.40
2018-04-15T23:15:39.130Z,13.40
2018-04-15T23:18:06.669Z,13.40
2018-04-15T23:20:34.579Z,13.30
2018-04-15T23:23:02.121Z,13.30
2018-04-15T23:25:29.662Z,13.30
2018-04-15T23:27:57.199Z,13.30
2018-04-15T23:30:24.722Z,13.30
2018-04-15T23:32:52.332Z,13.30
2018-04-15T23:35:19.854Z,13.30
2018-04-15T23:37:48.147Z,13.30
2018-04-15T23:40:15.682Z,13.20
2018-04-15T23:42:43.251Z,13.10
2018-04-15T23:45:10.775Z,13.10
2018-04-15T23:47:38.313Z,13.10
2018-04-15T23:50:05.890Z,13.10
2018-04-15T23:52:33.415Z,13.00
2018-04-15T23:55:00.934Z,13.00
2018-04-15T23:57:29.260Z,12.90
2018-04-15T23:59:56.778Z,12.80
